Glendale, CA

9:39 PM PDT on September 04, 2015 (GMT -0700)
Cumberland Heights | | Change Station
CLOSE
Current Station
Personal Weather Station
Location: Glendale, CA
Elevation: 699 ft
Nearby Weather Stations

Elev 699 ft 34.18 °N, 118.28 °W | Updated 15 seconds ago

Clear
Clear
66.6 °F
Feels Like 66.6 °F
N
0.0
Wind Variable Wind from North
Gusts 0.7 mph

Today
High -- | Low -- °F
--% Chance of Precip.
Yesterday
High -- | Low -- °F
Precip. -- in
6:28 AM 7:15 PM
Waning Gibbous, 52% visible
Pressure 29.82 in
Visibility 10.0 miles
Clouds Clear
Dew Point 57 °F
Humidity 71%
Rainfall 0.00 in
Snow Depth Not available.
UV 0 out of 12
Pollen 8.40 out of 12
Air Quality Not available.
Flu Activity Not available.
METAR KBUR 050353Z 00000KT 10SM CLR 21/12 A2985 RMK AO2 SLP097 T02110117
Pressure 29.82 in
Visibility 10.0 miles
Clouds Clear
Dew Point 57 °F
Humidity 71%
Rainfall 0.00 in
Snow Depth Not available.
UV 0 out of 12
Pollen 8.40 out of 12
Air Quality Not available.
Flu Activity Not available.
METAR KBUR 050353Z 00000KT 10SM CLR 21/12 A2985 RMK AO2 SLP097 T02110117

10-Day Weather Forecast

×

Almanac

Astronomy

Sep. 04, 2015 Rise Set
Actual Time
Civil Twilight
Nautical Twilight
Astronomical Twilight
Moon
Length of Visible Light
Length of Day
Tomorrow will be .
, % of the Moon is Illuminated

Today's Extremes

State Highs State Lows

Community

WunderPhotos

Upload Photos

1,852,425 photos uploaded!

WunderBlogs® & News

Nearby

Air Quality

  Air Quality AQ Index Pollutant
Not available.

Snow Depth

Station Depth Elevation

Earthquake Activity

City Distance Mag. Time & Date
Minimum magnitude displayed is 2.5.

Coastal Water Temperatures

Place Temperature

Stations

Nearby Weather Stations

Station Location Temp. Windchill Dew Point Humidity Wind Precip. Elev Updated Type